Time;durP1;ratioP1;P1;durP2;ratioP2;P2;SDS_P1;SDS_P2;PMS_P1;PMS_P2;Temp;Humidity;BMP_temperature;BMP_pressure;BME280_temperature;BME280_humidity;BME280_pressure;Samples;Min_cycle;Max_cycle;Signal;HPM_P1;HPM_P2
2023/07/09 00:01:53;;;;;;;;;;;;;;;20.62;100.00;102355.69;5092196;28;20258;-68
2023/07/09 00:04:19;;;;;;;;;;;;;;;20.81;100.00;102441.31;5091731;28;19923;-68
2023/07/09 00:06:44;;;;;;;;;;;;;;;20.69;100.00;102465.81;5092284;28;19961;-68
2023/07/09 00:09:17;;;;;;;;;;;;;;;20.43;100.00;102522.59;5091816;28;20301;-68
2023/07/09 00:11:42;;;;;;;;;;;;;;;20.09;100.00;102557.09;5093047;28;19928;-69
2023/07/09 00:14:09;;;;;;;;;;;;;;;20.13;100.00;102638.81;5096020;28;19912;-69
2023/07/09 00:16:34;;;;;;;;;;;;;;;20.21;100.00;102733.38;5096336;28;19912;-68
2023/07/09 00:22:02;;;;;;;;;;;;;;;20.18;100.00;102955.69;5095766;28;19961;-69
2023/07/09 00:24:28;;;;;;;;;;;;;;;20.08;100.00;103020.47;5095396;28;20328;-68
2023/07/09 00:26:53;;;;;;;;;;;;;;;20.20;100.00;103109.00;5095380;28;19965;-69
2023/07/09 00:29:19;;;;;;;;;;;;;;;20.00;100.00;103172.19;5095735;28;20418;-68
2023/07/09 00:31:44;;;;;;;;;;;;;;;19.89;100.00;103232.63;5095292;28;19915;-69
2023/07/09 00:37:12;;;;;;;;;;;;;;;19.97;100.00;103528.75;5095754;28;19915;-69
2023/07/09 00:42:42;;;;;;;;;;;;;;;19.90;100.00;103659.75;5095502;28;19923;-69
2023/07/09 00:48:16;;;;;;;;;;;;;;;19.89;100.00;103808.72;5095460;28;19941;-68
2023/07/09 00:53:45;;;;;;;;;;;;;;;19.98;100.00;103786.28;5095303;28;19916;-69
2023/07/09 00:56:14;;;;;;;;;;;;;;;19.83;100.00;103776.88;5094893;28;19961;-69
2023/07/09 00:58:41;;;;;;;;;;;;;;;19.76;100.00;103803.63;5095468;28;20359;-68
2023/07/09 01:04:10;;;;;;;;;;;;;;;20.32;100.00;103805.94;5095052;28;19919;-68
2023/07/09 01:06:36;;;;;;;;;;;;;;;19.49;100.00;103639.34;5095313;28;20273;-69
2023/07/09 01:09:03;;;;;;;;;;;;;;;19.05;100.00;103409.09;5094515;28;19912;-69
2023/07/09 01:11:29;;;;;;;;;;;;;;;19.82;100.00;103209.47;5076753;28;19919;-74
2023/07/09 01:17:01;;;;;;;;;;;;;;;19.37;100.00;102872.00;5094904;28;20411;-69
2023/07/09 01:19:28;;;;;;;;;;;;;;;19.51;100.00;102695.31;5094441;28;20409;-69
2023/07/09 01:22:00;;;;;;;;;;;;;;;19.40;100.00;102560.53;5094644;28;19916;-69
2023/07/09 01:24:44;;;;;;;;;;;;;;;19.80;100.00;102374.50;5093857;28;20004;-70
2023/07/09 01:30:16;;;;;;;;;;;;;;;19.63;100.00;101990.31;5094932;28;20449;-69
2023/07/09 01:32:45;;;;;;;;;;;;;;;19.61;100.00;101909.53;5094868;28;20923;-70
2023/07/09 01:35:12;;;;;;;;;;;;;;;19.44;100.00;101886.03;5098323;28;20437;-70
2023/07/09 01:40:39;;;;;;;;;;;;;;;19.91;100.00;101672.63;5094832;28;19941;-73
2023/07/09 01:43:06;;;;;;;;;;;;;;;20.25;100.00;101660.09;5094474;28;19916;-70
2023/07/09 01:45:33;;;;;;;;;;;;;;;19.82;100.00;101737.53;5094538;28;19912;-71
2023/07/09 01:47:58;;;;;;;;;;;;;;;19.46;100.00;101713.09;5076215;28;19919;-71
2023/07/09 01:53:26;;;;;;;;;;;;;;;19.30;100.00;101639.69;5094528;28;19969;-72
2023/07/09 01:55:54;;;;;;;;;;;;;;;19.38;100.00;101622.22;5094397;28;20312;-73
2023/07/09 01:58:19;;;;;;;;;;;;;;;19.18;100.00;101586.00;5094176;28;19912;-72
2023/07/09 02:00:45;;;;;;;;;;;;;;;18.51;100.00;101531.75;5094433;28;19996;-72
2023/07/09 02:06:13;;;;;;;;;;;;;;;18.72;100.00;101457.97;5094347;28;19961;-72
2023/07/09 02:11:40;;;;;;;;;;;;;;;18.68;100.00;101654.84;5094623;28;20285;-72
2023/07/09 02:14:05;;;;;;;;;;;;;;;18.42;100.00;101635.06;5093719;28;19916;-72
2023/07/09 02:16:31;;;;;;;;;;;;;;;18.43;100.00;101572.41;5109723;28;19912;-72
2023/07/09 02:18:56;;;;;;;;;;;;;;;18.62;100.00;101617.25;5075269;28;20002;-74
2023/07/09 02:24:25;;;;;;;;;;;;;;;18.76;100.00;101653.69;5094060;28;19961;-72
2023/07/09 02:26:57;;;;;;;;;;;;;;;18.85;100.00;101657.69;5075454;28;19916;-75
2023/07/09 02:29:23;;;;;;;;;;;;;;;19.13;100.00;101662.69;5094266;28;19927;-74
2023/07/09 02:34:52;;;;;;;;;;;;;;;18.74;100.00;101690.69;5094125;28;20033;-74
2023/07/09 02:37:18;;;;;;;;;;;;;;;18.66;100.00;101703.84;5109371;28;19915;-74
2023/07/09 02:39:44;;;;;;;;;;;;;;;18.55;100.00;101680.19;5093602;28;19912;-74
2023/07/09 02:42:11;;;;;;;;;;;;;;;18.47;100.00;101681.34;5093638;28;19912;-74
2023/07/09 02:44:36;;;;;;;;;;;;;;;18.71;100.00;101683.94;5093648;28;19916;-74
2023/07/09 02:50:05;;;;;;;;;;;;;;;18.66;100.00;101680.66;5093633;28;20034;-74
2023/07/09 02:52:30;;;;;;;;;;;;;;;18.52;100.00;101688.00;5093430;28;20010;-74
2023/07/09 02:54:55;;;;;;;;;;;;;;;18.35;100.00;101692.84;5093570;28;19992;-74
2023/07/09 02:57:21;;;;;;;;;;;;;;;18.49;100.00;101695.84;5093651;28;19913;-74
2023/07/09 02:59:46;;;;;;;;;;;;;;;18.15;100.00;101710.66;5093477;28;19922;-74
2023/07/09 03:02:11;;;;;;;;;;;;;;;18.59;100.00;101750.50;5074757;28;19912;-74
2023/07/09 03:04:38;;;;;;;;;;;;;;;18.73;100.00;101751.75;5074309;28;20452;-74
2023/07/09 03:07:04;;;;;;;;;;;;;;;18.90;100.00;101762.31;5109138;28;20286;-74
2023/07/09 03:12:32;;;;;;;;;;;;;;;18.82;100.00;101796.97;5093715;28;19914;-74
2023/07/09 03:14:57;;;;;;;;;;;;;;;18.91;100.00;101822.47;5092932;28;20010;-75
2023/07/09 03:17:23;;;;;;;;;;;;;;;18.91;100.00;101841.34;5093271;28;20285;-73
2023/07/09 03:19:48;;;;;;;;;;;;;;;19.21;100.00;101861.88;5093031;28;19966;-74
2023/07/09 03:22:13;;;;;;;;;;;;;;;19.46;100.00;101893.72;5092439;28;20007;-74
2023/07/09 03:24:38;;;;;;;;;;;;;;;19.12;100.00;101895.69;5092528;28;19912;-74
2023/07/09 03:27:04;;;;;;;;;;;;;;;19.21;100.00;101919.47;5093433;28;19916;-74
2023/07/09 03:29:29;;;;;;;;;;;;;;;19.41;100.00;101973.84;5074725;28;20012;-74
2023/07/09 03:34:57;;;;;;;;;;;;;;;19.33;100.00;101998.22;5092824;28;19965;-73
2023/07/09 03:37:22;;;;;;;;;;;;;;;19.63;100.00;102031.63;5076692;28;20401;-74
2023/07/09 03:39:48;;;;;;;;;;;;;;;19.63;100.00;102100.50;5096605;28;19912;-73
2023/07/09 03:42:13;;;;;;;;;;;;;;;19.54;100.00;102114.53;5092969;28;19962;-73
2023/07/09 03:47:41;;;;;;;;;;;;;;;19.73;100.00;102158.66;5095613;28;19957;-73
2023/07/09 03:50:09;;;;;;;;;;;;;;;19.70;100.00;102171.69;5112124;28;19920;-74
2023/07/09 03:52:35;;;;;;;;;;;;;;;19.54;100.00;102176.47;5096455;28;20940;-73
2023/07/09 03:55:02;;;;;;;;;;;;;;;19.80;100.00;102194.59;5096794;28;20358;-74
2023/07/09 04:00:30;;;;;;;;;;;;;;;19.66;100.00;102188.16;5097353;28;19966;-73
2023/07/09 04:02:56;;;;;;;;;;;;;;;19.60;100.00;102203.81;5098071;28;19916;-73
2023/07/09 04:05:22;;;;;;;;;;;;;;;19.86;100.00;102227.13;5098741;28;19912;-74
2023/07/09 04:07:47;;;;;;;;;;;;;;;19.91;100.00;102242.50;5096621;28;19915;-73
2023/07/09 04:13:15;;;;;;;;;;;;;;;20.25;100.00;102254.34;5096203;28;19923;-73
2023/07/09 04:15:40;;;;;;;;;;;;;;;20.31;100.00;102261.91;5095438;28;19907;-73
2023/07/09 04:18:06;;;;;;;;;;;;;;;20.36;100.00;102269.53;5095978;28;19912;-73
2023/07/09 04:20:31;;;;;;;;;;;;;;;20.52;100.00;102279.31;5096333;28;20009;-73
2023/07/09 04:26:02;;;;;;;;;;;;;;;20.54;100.00;102292.22;5095818;28;19923;-74
2023/07/09 04:28:27;;;;;;;;;;;;;;;21.03;100.00;102278.53;5111995;28;19935;-74
2023/07/09 04:30:53;;;;;;;;;;;;;;;21.15;100.00;102281.56;5095479;28;20374;-74
2023/07/09 04:33:19;;;;;;;;;;;;;;;21.18;100.00;102278.84;5095548;28;19915;-74
2023/07/09 04:35:45;;;;;;;;;;;;;;;21.17;100.00;102276.31;5096457;28;19912;-76
2023/07/09 04:38:11;;;;;;;;;;;;;;;21.19;100.00;102277.09;5097182;28;19920;-76
2023/07/09 04:40:36;;;;;;;;;;;;;;;21.57;100.00;102303.31;5112918;28;20301;-75
2023/07/09 04:46:04;;;;;;;;;;;;;;;22.00;100.00;102271.50;5097573;28;19915;-76
2023/07/09 04:48:29;;;;;;;;;;;;;;;22.08;100.00;102272.06;5112993;28;19912;-76
2023/07/09 04:50:54;;;;;;;;;;;;;;;22.12;100.00;102275.38;5096555;28;19935;-76
2023/07/09 04:53:20;;;;;;;;;;;;;;;22.27;100.00;102278.19;5112685;28;20061;-76
2023/07/09 04:58:48;;;;;;;;;;;;;;;21.98;100.00;102259.50;5094928;28;19999;-75
2023/07/09 05:01:13;;;;;;;;;;;;;;;22.51;100.00;102286.75;5095620;28;19959;-75
2023/07/09 05:03:38;;;;;;;;;;;;;;;22.58;100.00;102271.81;5077290;28;19912;-74
2023/07/09 05:06:04;;;;;;;;;;;;;;;22.63;100.00;102255.16;5095671;28;19927;-75
2023/07/09 05:11:33;;;;;;;;;;;;;;;22.87;100.00;102193.59;5095622;28;20334;-75
2023/07/09 05:13:59;;;;;;;;;;;;;;;23.43;100.00;102185.91;5077390;28;20010;-75
2023/07/09 05:16:24;;;;;;;;;;;;;;;23.62;100.00;102166.81;5111465;28;19959;-75
2023/07/09 05:18:49;;;;;;;;;;;;;;;23.29;100.00;102119.00;5111173;28;20362;-74
2023/07/09 05:24:17;;;;;;;;;;;;;;;23.65;100.00;102069.69;5095181;28;19919;-74
2023/07/09 05:29:58;;;;;;;;;;;;;;;23.79;100.00;101958.94;5093543;28;19923;-73
2023/07/09 05:32:23;;;;;;;;;;;;;;;24.31;100.00;101959.69;5076867;28;19916;-73
2023/07/09 05:34:49;;;;;;;;;;;;;;;24.64;100.00;101925.84;5076726;28;19912;-74
2023/07/09 05:37:14;;;;;;;;;;;;;;;24.43;100.00;101881.00;5094606;28;20369;-74
2023/07/09 05:39:39;;;;;;;;;;;;;;;24.72;100.00;101843.81;5094605;28;20362;-74
2023/07/09 05:42:05;;;;;;;;;;;;;;;24.75;100.00;101778.59;5094809;28;19995;-74
2023/07/09 05:44:30;;;;;;;;;;;;;;;24.60;100.00;101721.38;5095509;28;20028;-74
2023/07/09 05:46:55;;;;;;;;;;;;;;;24.81;100.00;101681.94;5111219;28;20461;-73
2023/07/09 05:49:20;;;;;;;;;;;;;;;25.20;100.00;101647.41;5076464;28;19912;-74
2023/07/09 05:54:49;;;;;;;;;;;;;;;25.45;100.00;101660.59;5095030;28;19915;-75
2023/07/09 05:57:15;;;;;;;;;;;;;;;24.91;100.00;101617.13;5076312;28;20332;-75
2023/07/09 05:59:40;;;;;;;;;;;;;;;25.76;100.00;101766.38;5094316;28;19999;-75
2023/07/09 06:02:09;;;;;;;;;;;;;;;25.70;100.00;101900.56;5094191;28;19965;-75
2023/07/09 06:07:38;;;;;;;;;;;;;;;25.53;100.00;101830.34;5094977;28;19915;-74
2023/07/09 06:10:07;;;;;;;;;;;;;;;25.45;100.00;101772.63;5075548;28;19912;-74
2023/07/09 06:12:33;;;;;;;;;;;;;;;26.01;100.00;101857.78;5094467;28;19920;-74
2023/07/09 06:14:58;;;;;;;;;;;;;;;25.47;100.00;101952.34;5094320;28;19918;-73
2023/07/09 06:20:26;;;;;;;;;;;;;;;25.76;100.00;102085.28;5094008;28;19919;-74
2023/07/09 06:25:54;;;;;;;;;;;;;;;26.90;100.00;102382.25;5093865;28;19915;-72
2023/07/09 06:28:20;;;;;;;;;;;;;;;26.46;100.00;101612.22;5109326;28;19920;-73
2023/07/09 06:30:46;;;;;;;;;;;;;;;26.64;100.00;101777.22;5075247;28;19924;-73
2023/07/09 06:33:12;;;;;;;;;;;;;;;26.06;100.00;101646.25;5109385;28;19912;-73
2023/07/09 06:35:37;;;;;;;;;;;;;;;26.69;100.00;101417.47;5075268;28;19908;-73
2023/07/09 06:41:06;;;;;;;;;;;;;;;26.66;100.00;101772.72;5093523;28;19914;-72
2023/07/09 06:43:32;;;;;;;;;;;;;;;27.16;100.00;101808.50;5093409;28;19912;-72
2023/07/09 06:45:58;;;;;;;;;;;;;;;26.93;100.00;101872.75;5075376;28;20011;-72
2023/07/09 06:48:25;;;;;;;;;;;;;;;26.86;100.00;102379.94;5093103;28;19990;-72
2023/07/09 06:53:53;;;;;;;;;;;;;;;26.81;100.00;102261.81;5093358;28;19958;-73
2023/07/09 06:56:18;;;;;;;;;;;;;;;27.42;100.00;102218.84;5093363;28;19908;-74
2023/07/09 06:58:45;;;;;;;;;;;;;;;26.85;100.00;102038.72;5093348;28;19951;-73
2023/07/09 07:01:11;;;;;;;;;;;;;;;27.04;100.00;101896.38;5093052;28;20357;-73
2023/07/09 07:06:39;;;;;;;;;;;;;;;27.79;100.00;101621.03;5093310;28;19915;-73
2023/07/09 07:09:04;;;;;;;;;;;;;;;27.41;100.00;101508.81;5092786;28;19912;-73
2023/07/09 07:11:30;;;;;;;;;;;;;;;27.27;100.00;101435.81;5108733;28;19948;-73
2023/07/09 07:13:55;;;;;;;;;;;;;;;27.34;100.00;101355.22;5092936;28;19919;-73
2023/07/09 07:16:21;;;;;;;;;;;;;;;27.73;100.00;101306.88;5092692;28;20419;-73
2023/07/09 07:18:46;;;;;;;;;;;;;;;27.84;100.00;101278.94;5092760;28;19964;-73
2023/07/09 07:21:11;;;;;;;;;;;;;;;27.43;100.00;101278.72;5108163;28;19912;-73
2023/07/09 07:23:36;;;;;;;;;;;;;;;27.55;100.00;101261.25;5092277;28;19912;-73
2023/07/09 07:29:04;;;;;;;;;;;;;;;28.27;100.00;101142.88;5092736;28;19958;-73
2023/07/09 07:31:30;;;;;;;;;;;;;;;27.51;100.00;101080.34;5092891;28;19959;-72
2023/07/09 07:33:55;;;;;;;;;;;;;;;28.15;100.00;101047.09;5108674;28;19966;-72
2023/07/09 07:36:20;;;;;;;;;;;;;;;28.14;100.00;100983.50;5108294;28;20359;-73
2023/07/09 07:41:50;;;;;;;;;;;;;;;27.74;100.00;100857.06;5092994;28;19915;-73
2023/07/09 07:44:15;;;;;;;;;;;;;;;28.17;100.00;100826.25;5092637;28;20277;-73
2023/07/09 07:46:41;;;;;;;;;;;;;;;28.05;100.00;100797.72;5092732;28;19999;-73
2023/07/09 07:49:06;;;;;;;;;;;;;;;28.22;100.00;100776.16;5108539;28;19919;-73
2023/07/09 07:54:34;;;;;;;;;;;;;;;27.84;100.00;100736.81;5092725;28;20004;-74
2023/07/09 07:57:00;;;;;;;;;;;;;;;27.79;100.00;100725.94;5092451;28;19907;-73
2023/07/09 07:59:25;;;;;;;;;;;;;;;28.48;100.00;100721.47;5092149;28;20429;-73
2023/07/09 08:01:50;;;;;;;;;;;;;;;27.90;100.00;100717.97;5092581;28;19908;-73
2023/07/09 08:04:16;;;;;;;;;;;;;;;27.82;100.00;100704.75;5092253;28;19916;-73
2023/07/09 08:06:41;;;;;;;;;;;;;;;28.79;100.00;100722.97;5107780;28;20007;-73
2023/07/09 08:09:07;;;;;;;;;;;;;;;27.99;100.00;100714.59;5092738;28;20271;-73
2023/07/09 08:11:32;;;;;;;;;;;;;;;28.20;100.00;100715.28;5091899;28;19940;-73
2023/07/09 08:13:57;;;;;;;;;;;;;;;28.79;100.00;100713.34;5092451;28;19912;-73
2023/07/09 08:19:25;;;;;;;;;;;;;;;28.43;100.00;100700.13;5092296;28;19995;-72
2023/07/09 08:24:53;;;;;;;;;;;;;;;28.62;100.00;100692.28;5092214;28;19963;-73
2023/07/09 08:27:19;;;;;;;;;;;;;;;29.49;100.00;100699.72;5107779;28;19948;-74
2023/07/09 08:29:44;;;;;;;;;;;;;;;28.42;100.00;100688.00;5092241;28;19916;-74
2023/07/09 08:32:12;;;;;;;;;;;;;;;29.36;100.00;100691.38;5092901;28;19923;-74
2023/07/09 08:37:40;;;;;;;;;;;;;;;29.24;100.00;100695.16;5099316;28;20291;-74
2023/07/09 08:40:08;;;;;;;;;;;;;;;29.30;100.00;100696.34;5096245;28;20385;-74
2023/07/09 08:42:41;;;;;;;;;;;;;;;28.47;100.00;100680.56;5095820;28;20346;-74
2023/07/09 08:45:15;;;;;;;;;;;;;;;29.09;100.00;100683.47;5095611;28;19934;-74
2023/07/09 08:50:45;;;;;;;;;;;;;;;29.01;100.00;100689.44;5095981;28;19962;-74
2023/07/09 08:53:17;;;;;;;;;;;;;;;29.36;100.00;100686.13;5095301;28;19915;-74
2023/07/09 08:55:43;;;;;;;;;;;;;;;28.84;100.00;100689.34;5077476;28;19912;-74
2023/07/09 09:01:19;;;;;;;;;;;;;;;30.02;100.00;100697.19;5095751;28;19919;-74
2023/07/09 09:03:46;;;;;;;;;;;;;;;29.30;100.00;100678.84;5095155;28;19916;-74
2023/07/09 09:06:12;;;;;;;;;;;;;;;29.56;100.00;100681.59;5095666;28;19913;-74
2023/07/09 09:08:38;;;;;;;;;;;;;;;29.86;100.00;100690.00;5077881;28;19908;-73
2023/07/09 09:11:03;;;;;;;;;;;;;;;29.14;100.00;100665.53;5095151;28;20325;-74
2023/07/09 09:13:30;;;;;;;;;;;;;;;30.08;100.00;100688.72;5095299;28;19919;-73
2023/07/09 09:16:00;;;;;;;;;;;;;;;29.63;100.00;100675.59;5077170;28;19987;-74
2023/07/09 09:18:26;;;;;;;;;;;;;;;30.42;100.00;100681.84;5076992;28;19912;-75
2023/07/09 09:30:23;;;;;;;;;;;;;;;30.73;100.00;100669.91;5094964;28;19923;-73
2023/07/09 09:32:56;;;;;;;;;;;;;;;30.53;100.00;100678.94;5095146;28;19958;-73
2023/07/09 09:35:26;;;;;;;;;;;;;;;29.94;100.00;100663.00;5094884;28;19918;-73
2023/07/09 09:37:56;;;;;;;;;;;;;;;30.60;100.00;100671.28;5076615;28;20397;-73
2023/07/09 09:40:23;;;;;;;;;;;;;;;30.33;100.00;100672.22;5094881;28;19912;-73
2023/07/09 09:42:48;;;;;;;;;;;;;;;29.35;100.00;100654.81;5095074;28;19912;-75
2023/07/09 09:45:16;;;;;;;;;;;;;;;29.81;100.00;100671.25;5094669;28;19912;-74
2023/07/09 09:50:45;;;;;;;;;;;;;;;29.88;100.00;100677.56;5094480;28;19923;-72
2023/07/09 09:53:15;;;;;;;;;;;;;;;29.81;100.00;100660.75;5076082;28;19908;-74
2023/07/09 09:55:40;;;;;;;;;;;;;;;30.73;100.00;100669.91;5094360;28;20362;-72
2023/07/09 09:58:14;;;;;;;;;;;;;;;30.91;100.00;100674.28;5075760;28;19928;-73
2023/07/09 10:00:40;;;;;;;;;;;;;;;30.82;100.00;100669.94;5094327;28;20354;-72
2023/07/09 10:03:06;;;;;;;;;;;;;;;30.52;100.00;100658.09;5075950;28;19929;-74
2023/07/09 10:05:48;;;;;;;;;;;;;;;30.49;100.00;100653.97;5094224;28;20358;-72
2023/07/09 10:11:24;;;;;;;;;;;;;;;30.65;100.00;100646.19;5094176;28;19929;-73
2023/07/09 10:13:51;;;;;;;;;;;;;;;30.94;100.00;100663.47;5094207;28;19912;-72
2023/07/09 10:16:17;;;;;;;;;;;;;;;29.85;100.00;100669.97;5094077;28;19959;-72
2023/07/09 10:18:51;;;;;;;;;;;;;;;30.42;100.00;100658.22;5094042;28;19935;-72
2023/07/09 10:21:25;;;;;;;;;;;;;;;31.54;100.00;100672.94;5093771;28;20397;-72
2023/07/09 10:24:09;;;;;;;;;;;;;;;30.54;100.00;100662.22;5093720;28;19912;-71
2023/07/09 10:26:34;;;;;;;;;;;;;;;30.90;100.00;100672.66;5075407;28;20003;-72
2023/07/09 10:29:05;;;;;;;;;;;;;;;30.63;100.00;100663.09;5093729;28;19966;-73
2023/07/09 10:31:33;;;;;;;;;;;;;;;30.70;100.00;100670.19;5094042;28;19923;-72
2023/07/09 10:37:21;;;;;;;;;;;;;;;31.60;100.00;100669.66;5093566;28;19915;-73
2023/07/09 10:39:56;;;;;;;;;;;;;;;30.24;100.00;100646.88;5082264;28;20366;-73
2023/07/09 10:45:37;;;;;;;;;;;;;;;30.58;100.00;100639.09;5093632;28;19918;-74
2023/07/09 10:48:06;;;;;;;;;;;;;;;30.65;100.00;100666.38;5093270;28;19947;-72
2023/07/09 10:50:37;;;;;;;;;;;;;;;30.74;100.00;100668.91;5075384;28;19912;-73
2023/07/09 10:56:09;;;;;;;;;;;;;;;31.53;100.00;100682.66;5092400;28;20393;-73
2023/07/09 10:58:55;;;;;;;;;;;;;;;30.71;100.00;100663.13;5093305;28;20361;-73
2023/07/09 11:01:25;;;;;;;;;;;;;;;31.40;100.00;100681.44;5093358;28;19937;-74
2023/07/09 11:03:53;;;;;;;;;;;;;;;31.67;100.00;100670.69;5092556;28;19912;-74
2023/07/09 11:06:22;;;;;;;;;;;;;;;30.32;100.00;100649.59;5093311;28;19920;-73
2023/07/09 11:08:49;;;;;;;;;;;;;;;30.96;100.00;100645.75;5074974;28;19912;-73
2023/07/09 11:14:22;;;;;;;;;;;;;;;31.67;100.00;100656.69;5092905;28;20033;-74
2023/07/09 11:16:48;;;;;;;;;;;;;;;31.70;100.00;100672.13;5093190;28;19949;-73
2023/07/09 11:19:16;;;;;;;;;;;;;;;31.30;100.00;100651.78;5074639;28;19915;-73
2023/07/09 11:24:46;;;;;;;;;;;;;;;30.29;100.00;100633.31;5092839;28;20441;-72
2023/07/09 11:27:16;;;;;;;;;;;;;;;31.36;100.00;100657.22;5092874;28;19919;-73
2023/07/09 11:29:46;;;;;;;;;;;;;;;30.84;100.00;100652.25;5093243;28;19912;-74
2023/07/09 11:32:18;;;;;;;;;;;;;;;31.63;100.00;100655.38;5092511;28;19912;-74
2023/07/09 11:37:46;;;;;;;;;;;;;;;31.08;100.00;100660.25;5093237;28;19965;-74
2023/07/09 11:43:32;;;;;;;;;;;;;;;31.63;100.00;100657.00;5092576;28;20297;-72
2023/07/09 11:46:02;;;;;;;;;;;;;;;30.97;100.00;100639.50;5093010;28;19911;-72
2023/07/09 11:48:29;;;;;;;;;;;;;;;31.17;100.00;100636.47;5092246;28;19912;-73
2023/07/09 11:53:58;;;;;;;;;;;;;;;31.63;100.00;100648.31;5093087;28;19935;-73
2023/07/09 11:56:25;;;;;;;;;;;;;;;30.37;100.00;100605.31;5092626;28;20364;-73
2023/07/09 11:58:51;;;;;;;;;;;;;;;30.79;100.00;100616.72;5092602;28;19912;-73
2023/07/09 12:01:19;;;;;;;;;;;;;;;31.29;100.00;100623.84;5092703;28;20371;-73
2023/07/09 12:06:47;;;;;;;;;;;;;;;31.03;100.00;100615.22;5092481;28;20317;-72
2023/07/09 12:12:23;;;;;;;;;;;;;;;31.22;100.00;100618.41;5096272;28;19919;-72
2023/07/09 12:14:49;;;;;;;;;;;;;;;30.80;100.00;100623.63;5077945;28;19912;-73
2023/07/09 12:17:14;;;;;;;;;;;;;;;30.95;100.00;100615.19;5078488;28;19912;-73
2023/07/09 12:19:40;;;;;;;;;;;;;;;31.48;100.00;100631.50;5077635;28;20293;-72
2023/07/09 12:25:17;;;;;;;;;;;;;;;31.91;100.00;100631.22;5096034;28;20309;-72
2023/07/09 12:27:42;;;;;;;;;;;;;;;31.74;100.00;100626.09;5096103;28;19911;-72
2023/07/09 12:30:11;;;;;;;;;;;;;;;31.33;100.00;100617.28;5095762;28;19923;-72
2023/07/09 12:32:42;;;;;;;;;;;;;;;32.42;100.00;100619.53;5095375;28;19920;-71
2023/07/09 12:38:21;;;;;;;;;;;;;;;31.70;100.00;100615.09;5095795;28;19975;-72
2023/07/09 12:40:46;;;;;;;;;;;;;;;31.29;100.00;100615.97;5095820;28;19909;-72
2023/07/09 12:43:12;;;;;;;;;;;;;;;30.64;100.00;100605.13;5095710;28;20049;-72
2023/07/09 12:45:37;;;;;;;;;;;;;;;31.49;100.00;100620.00;5077526;28;20065;-72
2023/07/09 12:48:02;;;;;;;;;;;;;;;31.88;100.00;100625.47;5094973;28;19912;-72
2023/07/09 12:50:30;;;;;;;;;;;;;;;32.10;100.00;100606.41;5077438;28;19912;-72
2023/07/09 12:52:57;;;;;;;;;;;;;;;31.88;100.00;100599.16;5095442;28;19912;-72
2023/07/09 12:58:27;;;;;;;;;;;;;;;32.30;100.00;100600.63;5095778;28;19931;-72
2023/07/09 13:00:53;;;;;;;;;;;;;;;31.00;100.00;100594.53;5077150;28;19912;-73
2023/07/09 13:03:25;;;;;;;;;;;;;;;31.54;100.00;100612.44;5095414;28;19919;-73
2023/07/09 13:05:52;;;;;;;;;;;;;;;31.66;100.00;100602.41;5098397;28;19912;-73
2023/07/09 13:08:17;;;;;;;;;;;;;;;30.79;100.00;100589.63;5104261;28;19928;-73
2023/07/09 13:10:43;;;;;;;;;;;;;;;31.48;100.00;100600.75;5102772;28;19938;-73
2023/07/09 13:13:12;;;;;;;;;;;;;;;31.37;100.00;100603.66;5077012;28;20391;-73
2023/07/09 13:15:39;;;;;;;;;;;;;;;31.23;100.00;100603.47;5095427;28;19948;-73
2023/07/09 13:18:05;;;;;;;;;;;;;;;31.25;100.00;100604.13;5095045;28;20397;-72
2023/07/09 13:20:32;;;;;;;;;;;;;;;30.87;100.00;100602.00;5093960;28;20453;-72
2023/07/09 13:22:58;;;;;;;;;;;;;;;30.89;100.00;100602.66;5095079;28;19923;-73
2023/07/09 13:25:23;;;;;;;;;;;;;;;31.24;100.00;100613.81;5076680;28;19916;-72
2023/07/09 13:27:49;;;;;;;;;;;;;;;31.28;100.00;100612.50;5094718;28;19916;-72
2023/07/09 13:30:14;;;;;;;;;;;;;;;31.18;100.00;100617.06;5094276;28;19916;-72
2023/07/09 13:35:42;;;;;;;;;;;;;;;31.08;100.00;100608.50;5095028;28;19961;-74
2023/07/09 13:38:12;;;;;;;;;;;;;;;31.83;100.00;100612.81;5094723;28;20364;-72
2023/07/09 13:40:38;;;;;;;;;;;;;;;31.29;100.00;100587.88;5076587;28;20320;-74
2023/07/09 13:43:07;;;;;;;;;;;;;;;31.58;100.00;100588.28;5094769;28;20010;-74
2023/07/09 13:48:36;;;;;;;;;;;;;;;31.61;100.00;100595.03;5094590;28;20385;-74
2023/07/09 13:51:10;;;;;;;;;;;;;;;30.86;100.00;100597.75;5094455;28;19912;-73
2023/07/09 13:53:36;;;;;;;;;;;;;;;30.67;100.00;100589.09;5094479;28;19913;-74
2023/07/09 13:59:05;;;;;;;;;;;;;;;31.50;100.00;100590.06;5094176;28;19915;-73
2023/07/09 14:04:33;;;;;;;;;;;;;;;32.02;100.00;100585.34;5094176;28;19927;-74
2023/07/09 14:06:59;;;;;;;;;;;;;;;31.79;100.00;100587.00;5094357;28;19912;-74
2023/07/09 14:09:24;;;;;;;;;;;;;;;30.96;100.00;100582.69;5094699;28;19912;-73
2023/07/09 14:11:51;;;;;;;;;;;;;;;30.53;100.00;100573.91;5094301;28;20405;-74
2023/07/09 14:14:21;;;;;;;;;;;;;;;31.21;100.00;100582.59;5076101;28;20324;-74
2023/07/09 14:16:47;;;;;;;;;;;;;;;31.56;100.00;100582.34;5075671;28;19934;-74
2023/07/09 14:19:17;;;;;;;;;;;;;;;30.42;100.00;100587.31;5094190;28;19916;-74
2023/07/09 14:21:43;;;;;;;;;;;;;;;30.16;100.00;100585.63;5093626;28;19922;-74
2023/07/09 14:27:11;;;;;;;;;;;;;;;30.97;100.00;100587.78;5093710;28;19965;-74
2023/07/09 14:29:36;;;;;;;;;;;;;;;31.02;100.00;100585.47;5093415;28;19919;-74
2023/07/09 14:32:02;;;;;;;;;;;;;;;30.71;100.00;100589.59;5093779;28;20022;-74
2023/07/09 14:34:29;;;;;;;;;;;;;;;29.81;100.00;100587.31;5093782;28;20320;-72
2023/07/09 14:36:55;;;;;;;;;;;;;;;30.89;100.00;100594.78;5093193;28;20332;-71
2023/07/09 14:39:21;;;;;;;;;;;;;;;30.85;100.00;100606.59;5093020;28;19971;-72
2023/07/09 14:41:47;;;;;;;;;;;;;;;30.52;100.00;100595.09;5093690;28;19912;-72
2023/07/09 14:47:17;;;;;;;;;;;;;;;31.10;100.00;100608.34;5093328;28;20290;-72
2023/07/09 14:52:46;;;;;;;;;;;;;;;30.91;100.00;100598.09;5093232;28;20010;-72
2023/07/09 14:55:29;;;;;;;;;;;;;;;30.82;100.00;100599.84;5093476;28;19947;-72
2023/07/09 15:00:57;;;;;;;;;;;;;;;31.55;100.00;100622.78;5093110;28;20469;-73
2023/07/09 15:03:23;;;;;;;;;;;;;;;31.47;100.00;100620.16;5108582;28;19912;-73
2023/07/09 15:05:49;;;;;;;;;;;;;;;31.79;100.00;100615.94;5093739;28;19919;-72
2023/07/09 15:08:19;;;;;;;;;;;;;;;32.14;100.00;100624.34;5093153;28;19908;-72
2023/07/09 15:13:47;;;;;;;;;;;;;;;31.01;100.00;100625.06;5093032;28;19984;-73
2023/07/09 15:19:18;;;;;;;;;;;;;;;31.01;100.00;100625.88;5092991;28;19934;-73
2023/07/09 15:21:43;;;;;;;;;;;;;;;31.04;100.00;100620.31;5092852;28;19964;-72
2023/07/09 15:24:25;;;;;;;;;;;;;;;31.02;100.00;100629.34;5074306;28;19912;-73
2023/07/09 15:29:54;;;;;;;;;;;;;;;30.37;100.00;100628.13;5093007;28;19927;-72
2023/07/09 15:35:22;;;;;;;;;;;;;;;30.94;100.00;100635.38;5092954;28;19962;-73
2023/07/09 15:37:49;;;;;;;;;;;;;;;30.37;100.00;100621.06;5074133;28;19951;-72
2023/07/09 15:40:14;;;;;;;;;;;;;;;30.37;100.00;100622.88;5092975;28;19912;-72
2023/07/09 15:42:39;;;;;;;;;;;;;;;30.95;100.00;100626.53;5094191;28;19965;-72
2023/07/09 15:45:05;;;;;;;;;;;;;;;30.83;100.00;100635.63;5112515;28;20008;-72
2023/07/09 15:47:30;;;;;;;;;;;;;;;30.37;100.00;100625.50;5078536;28;19912;-73
2023/07/09 15:49:55;;;;;;;;;;;;;;;30.87;100.00;100631.75;5096744;28;19912;-72
2023/07/09 15:52:20;;;;;;;;;;;;;;;30.79;100.00;100627.25;5096335;28;19916;-72
2023/07/09 15:57:49;;;;;;;;;;;;;;;30.81;100.00;100640.22;5096674;28;19938;-72
2023/07/09 16:00:25;;;;;;;;;;;;;;;30.58;100.00;100623.34;5095992;28;19912;-72
2023/07/09 16:02:51;;;;;;;;;;;;;;;30.42;100.00;100618.00;5096931;28;19912;-72
2023/07/09 16:08:20;;;;;;;;;;;;;;;30.44;100.00;100631.78;5096261;28;20400;-72
2023/07/09 16:10:45;;;;;;;;;;;;;;;30.32;100.00;100630.38;5096311;28;20434;-73